createdAt,value
2023-11-12T00:02:25.775Z,2.50
2023-11-12T00:04:56.590Z,1.40
2023-11-12T00:07:27.424Z,1.40
2023-11-12T00:09:58.218Z,1.70
2023-11-12T00:12:29.388Z,3.10
2023-11-12T00:15:00.287Z,2.00
2023-11-12T00:17:31.130Z,1.50
2023-11-12T00:20:06.112Z,4.10
2023-11-12T00:22:36.978Z,2.80
2023-11-12T00:25:09.723Z,2.00
2023-11-12T00:27:40.582Z,2.00
2023-11-12T00:30:15.305Z,2.80
2023-11-12T00:32:46.205Z,2.60
2023-11-12T00:35:17.166Z,1.90
2023-11-12T00:37:48.389Z,1.30
2023-11-12T00:40:19.335Z,2.70
2023-11-12T00:42:50.080Z,3.50
2023-11-12T00:45:21.289Z,2.70
2023-11-12T00:47:52.065Z,1.40
2023-11-12T00:50:22.906Z,1.30
2023-11-12T00:52:53.818Z,1.40
2023-11-12T00:55:24.526Z,0.90
2023-11-12T01:00:25.276Z,1.40
2023-11-12T01:02:56.218Z,1.40
2023-11-12T01:05:27.067Z,1.10
2023-11-12T01:07:58.531Z,1.00
2023-11-12T01:10:29.450Z,2.10
2023-11-12T01:13:00.937Z,1.40
2023-11-12T01:15:32.027Z,1.40
2023-11-12T01:18:03.000Z,2.80
2023-11-12T01:20:33.923Z,1.20
2023-11-12T01:23:05.502Z,4.90
2023-11-12T01:25:36.600Z,1.00
2023-11-12T01:28:07.586Z,0.60
2023-11-12T01:30:38.442Z,1.60
2023-11-12T01:33:09.243Z,2.00
2023-11-12T01:35:39.995Z,1.20
2023-11-12T01:38:10.787Z,3.10
2023-11-12T01:40:42.756Z,0.80
2023-11-12T01:43:14.494Z,0.60
2023-11-12T01:45:45.846Z,0.90
2023-11-12T01:48:17.494Z,1.50
2023-11-12T01:50:49.104Z,0.90
2023-11-12T01:53:21.136Z,1.40
2023-11-12T01:55:52.000Z,1.60
2023-11-12T01:58:23.600Z,0.80
2023-11-12T02:00:54.921Z,0.50
2023-11-12T02:03:27.521Z,1.80
2023-11-12T02:05:58.402Z,1.30
2023-11-12T02:08:30.442Z,2.00
2023-11-12T02:11:08.536Z,1.40
2023-11-12T02:13:40.459Z,5.10
2023-11-12T02:16:11.781Z,6.70
2023-11-12T02:18:48.360Z,2.90
2023-11-12T02:21:26.192Z,1.70
2023-11-12T02:23:57.011Z,2.20
2023-11-12T02:26:27.847Z,1.50
2023-11-12T02:28:59.854Z,1.70
2023-11-12T02:31:30.764Z,1.50
2023-11-12T02:34:01.526Z,2.10
2023-11-12T02:39:01.471Z,1.80
2023-11-12T02:41:32.347Z,2.40
2023-11-12T02:44:03.153Z,1.50
2023-11-12T02:46:33.989Z,4.30
2023-11-12T02:49:30.260Z,3.30
2023-11-12T02:52:01.027Z,2.50
2023-11-12T02:54:31.851Z,1.50
2023-11-12T02:57:02.633Z,4.10
2023-11-12T02:59:33.612Z,3.60
2023-11-12T03:02:05.317Z,4.40
2023-11-12T03:04:36.021Z,1.90
2023-11-12T03:09:36.301Z,2.90
2023-11-12T03:12:08.238Z,5.60
2023-11-12T03:14:39.003Z,5.00
2023-11-12T03:19:39.769Z,4.70
2023-11-12T03:22:11.130Z,4.20
2023-11-12T03:24:41.885Z,3.70
2023-11-12T03:29:42.539Z,1.90
2023-11-12T03:34:43.136Z,2.50
2023-11-12T03:37:13.872Z,2.70
2023-11-12T03:47:13.028Z,5.00
2023-11-12T03:49:43.842Z,1.40
2023-11-12T03:54:44.731Z,1.30
2023-11-12T03:57:15.809Z,1.70
2023-11-12T03:59:48.801Z,1.00
2023-11-12T04:02:19.593Z,2.60
2023-11-12T04:07:20.009Z,2.30
2023-11-12T04:12:20.561Z,3.00
2023-11-12T04:14:51.345Z,3.00
2023-11-12T04:19:51.785Z,2.40
2023-11-12T04:22:24.499Z,1.20
2023-11-12T04:24:55.449Z,1.20
2023-11-12T04:27:26.155Z,1.80
2023-11-12T04:29:57.286Z,2.20
2023-11-12T04:32:28.546Z,1.40
2023-11-12T04:34:59.403Z,1.40
2023-11-12T04:40:01.350Z,1.80
2023-11-12T04:42:32.158Z,1.60
2023-11-12T04:45:03.792Z,2.50
2023-11-12T04:47:35.030Z,0.80
2023-11-12T04:50:06.251Z,2.20
2023-11-12T04:52:37.115Z,3.50
2023-11-12T04:55:08.952Z,2.60
2023-11-12T04:57:39.744Z,3.60
2023-11-12T05:00:13.940Z,5.70
2023-11-12T05:02:46.269Z,8.10
2023-11-12T05:05:17.820Z,5.00
2023-11-12T05:07:49.133Z,3.50
2023-11-12T05:10:19.993Z,4.40
2023-11-12T05:15:20.195Z,2.80
2023-11-12T05:17:51.115Z,1.40
2023-11-12T05:20:21.876Z,2.00
2023-11-12T05:25:22.035Z,2.10
2023-11-12T05:27:52.815Z,2.40
2023-11-12T05:32:55.327Z,2.50
2023-11-12T05:35:26.142Z,2.00
2023-11-12T05:42:55.646Z,2.30
2023-11-12T05:47:55.610Z,2.20
2023-11-12T05:50:26.762Z,3.10
2023-11-12T05:52:57.524Z,1.10
2023-11-12T05:57:58.503Z,1.30
2023-11-12T06:00:29.324Z,1.80
2023-11-12T06:03:00.270Z,3.50
2023-11-12T06:05:31.188Z,7.30
2023-11-12T06:08:03.701Z,6.10
2023-11-12T06:10:34.473Z,1.50
2023-11-12T06:15:34.473Z,3.20
2023-11-12T06:20:35.056Z,3.10
2023-11-12T06:25:35.147Z,1.20
2023-11-12T06:28:06.162Z,0.60
2023-11-12T06:30:36.900Z,0.90
2023-11-12T06:35:36.963Z,0.70
2023-11-12T06:40:36.863Z,1.60
2023-11-12T06:45:36.787Z,1.20
2023-11-12T06:50:37.052Z,2.60
2023-11-12T06:53:07.824Z,1.80
2023-11-12T06:58:07.799Z,2.30
2023-11-12T07:00:38.652Z,3.00
2023-11-12T07:03:09.566Z,4.20
2023-11-12T07:05:40.445Z,6.20
2023-11-12T07:10:40.358Z,2.90
2023-11-12T07:13:11.091Z,7.00
2023-11-12T07:15:43.191Z,3.40
2023-11-12T07:18:14.371Z,1.60
2023-11-12T07:20:45.607Z,2.30
2023-11-12T07:23:18.762Z,1.30
2023-11-12T07:25:49.740Z,1.40
2023-11-12T07:28:21.181Z,4.10
2023-11-12T07:30:51.940Z,3.80
2023-11-12T07:33:22.923Z,4.00
2023-11-12T07:35:54.760Z,3.60
2023-11-12T07:38:26.309Z,4.40
2023-11-12T07:40:57.156Z,1.70
2023-11-12T07:43:27.891Z,1.80
2023-11-12T07:45:58.675Z,1.50
2023-11-12T07:48:29.477Z,1.60
2023-11-12T07:51:00.382Z,2.20
2023-11-12T07:53:31.123Z,2.80
2023-11-12T07:56:01.812Z,2.30
2023-11-12T07:58:32.662Z,1.30
2023-11-12T08:01:03.530Z,3.10
2023-11-12T08:03:35.224Z,1.70
2023-11-12T08:06:06.475Z,3.60
2023-11-12T08:08:38.004Z,5.80
2023-11-12T08:11:09.119Z,2.80
2023-11-12T08:13:40.311Z,2.20
2023-11-12T08:16:11.407Z,2.40
2023-11-12T08:18:43.266Z,2.70
2023-11-12T08:21:14.417Z,5.10
2023-11-12T08:23:45.179Z,4.10
2023-11-12T08:26:16.095Z,2.70
2023-11-12T08:28:48.395Z,3.00
2023-11-12T08:31:19.152Z,3.60
2023-11-12T08:33:50.133Z,5.50
2023-11-12T08:36:20.980Z,8.50
2023-11-12T08:38:51.753Z,3.00
2023-11-12T08:41:22.465Z,2.20
2023-11-12T08:43:53.204Z,3.10
2023-11-12T08:46:24.445Z,2.50
2023-11-12T08:48:55.250Z,3.20
2023-11-12T08:51:26.016Z,2.80
2023-11-12T08:53:56.761Z,3.60
2023-11-12T08:56:29.563Z,2.00
2023-11-12T08:59:01.219Z,2.10
2023-11-12T09:01:35.354Z,3.40
2023-11-12T09:04:06.540Z,2.30
2023-11-12T09:06:37.471Z,3.10
2023-11-12T09:09:10.248Z,2.60
2023-11-12T09:11:41.132Z,2.20
2023-11-12T09:14:16.088Z,1.70
2023-11-12T09:16:48.111Z,6.40
2023-11-12T09:19:18.997Z,4.90
2023-11-12T09:21:49.838Z,3.30
2023-11-12T09:24:20.597Z,4.30
2023-11-12T09:26:51.318Z,4.40
2023-11-12T09:29:22.038Z,2.60
2023-11-12T09:31:52.732Z,3.30
2023-11-12T09:34:23.868Z,2.00
2023-11-12T09:36:54.593Z,2.30
2023-11-12T09:39:26.005Z,2.80
2023-11-12T09:42:01.867Z,2.90
2023-11-12T09:44:34.798Z,2.70
2023-11-12T09:47:15.132Z,2.10
2023-11-12T09:49:46.575Z,2.70
2023-11-12T09:52:17.500Z,2.20
2023-11-12T09:54:49.790Z,2.80
2023-11-12T09:57:21.296Z,1.50
2023-11-12T09:59:52.844Z,1.20
2023-11-12T10:02:25.408Z,1.50
2023-11-12T10:05:05.384Z,3.20
2023-11-12T10:07:36.306Z,1.60
2023-11-12T10:10:27.735Z,1.30
2023-11-12T10:12:59.609Z,1.80
2023-11-12T10:15:34.943Z,1.30
2023-11-12T10:18:07.571Z,1.10
2023-11-12T10:20:42.233Z,1.90
2023-11-12T10:23:32.612Z,3.10
2023-11-12T10:26:11.525Z,3.10
2023-11-12T10:28:42.377Z,1.40
2023-11-12T10:31:15.451Z,1.00
2023-11-12T10:34:02.140Z,2.50
2023-11-12T10:36:32.986Z,2.10
2023-11-12T10:39:12.291Z,1.70
2023-11-12T10:41:43.232Z,2.10
2023-11-12T10:44:15.108Z,1.50
2023-11-12T10:46:53.309Z,1.90
2023-11-12T10:49:25.192Z,1.20
2023-11-12T10:51:57.886Z,1.40
2023-11-12T10:54:30.236Z,1.70
2023-11-12T10:57:01.854Z,1.50
2023-11-12T10:59:35.758Z,2.40
2023-11-12T11:02:10.889Z,3.70
2023-11-12T11:04:42.226Z,1.50
2023-11-12T11:07:12.970Z,1.70
2023-11-12T11:09:44.042Z,1.80
2023-11-12T11:12:15.804Z,2.00
2023-11-12T11:14:47.861Z,1.10
2023-11-12T11:17:41.127Z,2.70
2023-11-12T11:20:13.412Z,2.20
2023-11-12T11:22:45.750Z,2.60
2023-11-12T11:25:27.847Z,2.00
2023-11-12T11:28:24.404Z,2.70
2023-11-12T11:31:14.860Z,4.60
2023-11-12T11:33:52.642Z,1.20
2023-11-12T11:36:25.138Z,1.90
2023-11-12T11:39:24.951Z,1.70
2023-11-12T11:42:22.243Z,5.20
2023-11-12T11:44:54.028Z,1.90
2023-11-12T11:47:27.816Z,1.60
2023-11-12T11:50:45.676Z,1.80
2023-11-12T11:53:19.887Z,2.70
2023-11-12T11:55:56.627Z,1.70
2023-11-12T11:58:31.612Z,3.90
2023-11-12T12:01:02.848Z,3.00
2023-11-12T12:03:33.602Z,1.70
2023-11-12T12:06:17.718Z,1.90
2023-11-12T12:08:56.970Z,1.90
2023-11-12T12:11:27.712Z,1.40
2023-11-12T12:14:02.186Z,1.70
2023-11-12T12:16:35.107Z,2.10
2023-11-12T12:19:06.407Z,2.30
2023-11-12T12:21:37.860Z,0.70
2023-11-12T12:24:09.774Z,1.60
2023-11-12T12:26:41.275Z,1.70
2023-11-12T12:29:23.126Z,1.10
2023-11-12T12:31:55.957Z,0.90
2023-11-12T12:34:26.731Z,2.00
2023-11-12T12:37:06.668Z,2.30
2023-11-12T12:40:02.946Z,1.70
2023-11-12T12:42:35.692Z,1.20
2023-11-12T12:45:17.346Z,1.20
2023-11-12T12:47:50.327Z,2.00
2023-11-12T12:50:26.990Z,1.20
2023-11-12T12:53:15.192Z,1.20
2023-11-12T12:55:47.546Z,2.10
2023-11-12T12:58:20.641Z,1.50
2023-11-12T13:00:53.555Z,1.00
2023-11-12T13:03:27.788Z,2.10
2023-11-12T13:05:59.148Z,1.80
2023-11-12T13:08:30.110Z,1.00
2023-11-12T13:11:01.401Z,1.40
2023-11-12T13:13:32.334Z,0.90
2023-11-12T13:16:03.099Z,1.00
2023-11-12T13:18:33.971Z,3.80
2023-11-12T13:21:06.623Z,5.20
2023-11-12T13:23:39.740Z,5.60
2023-11-12T13:26:12.407Z,1.00
2023-11-12T13:28:43.905Z,3.90
2023-11-12T13:31:16.133Z,4.70
2023-11-12T13:33:49.469Z,2.10
2023-11-12T13:36:20.682Z,3.00
2023-11-12T13:38:51.826Z,1.90
2023-11-12T13:41:26.085Z,3.30
2023-11-12T13:43:56.945Z,2.30
2023-11-12T13:46:28.335Z,3.80
2023-11-12T13:49:02.245Z,4.50
2023-11-12T13:51:37.192Z,2.40
2023-11-12T13:54:11.640Z,1.70
2023-11-12T13:56:42.834Z,3.10
2023-11-12T13:59:13.773Z,2.70
2023-11-12T14:01:46.663Z,6.00
2023-11-12T14:04:17.553Z,3.10
2023-11-12T14:06:49.366Z,5.40
2023-11-12T14:09:21.803Z,3.30
2023-11-12T14:11:53.077Z,4.20
2023-11-12T14:14:23.797Z,1.60
2023-11-12T14:16:54.781Z,3.60
2023-11-12T14:19:28.537Z,4.60
2023-11-12T14:21:59.418Z,1.50
2023-11-12T14:24:30.262Z,2.50
2023-11-12T14:27:03.986Z,2.60
2023-11-12T14:29:35.628Z,2.90
2023-11-12T14:32:07.479Z,1.60
2023-11-12T14:34:39.664Z,3.40
2023-11-12T14:37:10.590Z,4.00
2023-11-12T14:39:41.364Z,3.30
2023-11-12T14:42:12.141Z,2.40
2023-11-12T14:44:42.860Z,2.30
2023-11-12T14:47:14.406Z,6.60
2023-11-12T14:49:47.195Z,3.30
2023-11-12T14:52:18.046Z,1.90
2023-11-12T14:54:49.010Z,1.60
2023-11-12T14:57:19.735Z,1.20
2023-11-12T14:59:50.498Z,2.20
2023-11-12T15:02:21.537Z,1.80
2023-11-12T15:04:52.302Z,1.40
2023-11-12T15:07:23.098Z,4.10
2023-11-12T15:09:53.948Z,1.30
2023-11-12T15:12:26.914Z,1.80
2023-11-12T15:14:57.623Z,2.40
2023-11-12T15:17:30.317Z,1.70
2023-11-12T15:20:04.930Z,2.20
2023-11-12T15:22:35.754Z,3.70
2023-11-12T15:25:07.359Z,2.30
2023-11-12T15:27:39.999Z,4.30
2023-11-12T15:30:14.277Z,2.40
2023-11-12T15:32:46.324Z,3.60
2023-11-12T15:35:17.902Z,7.70
2023-11-12T15:37:48.816Z,9.80
2023-11-12T15:40:21.169Z,7.60
2023-11-12T15:42:55.423Z,5.30
2023-11-12T15:45:26.686Z,6.40
2023-11-12T15:47:57.915Z,10.60
2023-11-12T15:50:31.452Z,7.50
2023-11-12T15:53:03.918Z,8.40
2023-11-12T15:55:34.773Z,8.40
2023-11-12T15:58:06.538Z,6.20
2023-11-12T16:00:38.002Z,7.60
2023-11-12T16:03:18.132Z,9.70
2023-11-12T16:05:49.816Z,13.20
2023-11-12T16:08:20.532Z,16.70
2023-11-12T16:10:51.661Z,10.20
2023-11-12T16:13:22.857Z,4.50
2023-11-12T16:15:53.810Z,6.60
2023-11-12T16:18:24.806Z,6.40
2023-11-12T16:20:56.142Z,5.10
2023-11-12T16:23:26.972Z,5.70
2023-11-12T16:25:57.796Z,4.60
2023-11-12T16:28:30.666Z,4.80
2023-11-12T16:31:03.307Z,5.50
2023-11-12T16:33:34.153Z,4.10
2023-11-12T16:36:05.340Z,4.00
2023-11-12T16:38:39.226Z,3.90
2023-11-12T16:41:10.122Z,8.60
2023-11-12T16:43:41.112Z,8.10
2023-11-12T16:46:12.282Z,9.10
2023-11-12T16:48:43.074Z,8.10
2023-11-12T16:51:13.876Z,10.80
2023-11-12T16:53:45.114Z,10.40
2023-11-12T16:56:16.550Z,12.10
2023-11-12T16:58:48.506Z,8.50
2023-11-12T17:01:19.413Z,6.10
2023-11-12T17:03:50.335Z,7.60
2023-11-12T17:06:21.389Z,6.90
2023-11-12T17:08:52.324Z,5.90
2023-11-12T17:11:23.116Z,4.60
2023-11-12T17:13:53.983Z,5.90
2023-11-12T17:16:24.922Z,4.00
2023-11-12T17:18:55.793Z,3.80
2023-11-12T17:21:33.698Z,4.60
2023-11-12T17:24:05.233Z,3.40
2023-11-12T17:26:38.656Z,8.90
2023-11-12T17:29:09.776Z,5.60
2023-11-12T17:31:40.614Z,3.10
2023-11-12T17:34:11.514Z,4.20
2023-11-12T17:36:42.506Z,6.10
2023-11-12T17:39:17.091Z,4.80
2023-11-12T17:41:48.232Z,4.20
2023-11-12T17:44:19.192Z,4.20
2023-11-12T17:46:50.051Z,5.90
2023-11-12T17:49:21.296Z,4.60
2023-11-12T17:51:52.794Z,4.90
2023-11-12T17:54:23.994Z,3.30
2023-11-12T17:56:55.175Z,6.40
2023-11-12T17:59:26.237Z,4.80
2023-11-12T18:01:57.156Z,6.70
2023-11-12T18:04:28.005Z,5.10
2023-11-12T18:06:59.118Z,4.00
2023-11-12T18:09:29.955Z,5.10
2023-11-12T18:12:01.254Z,4.30
2023-11-12T18:14:33.397Z,4.70
2023-11-12T18:17:05.565Z,7.60
2023-11-12T18:19:36.355Z,6.10
2023-11-12T18:22:07.340Z,5.00
2023-11-12T18:24:38.728Z,5.80
2023-11-12T18:27:10.421Z,5.90
2023-11-12T18:29:41.108Z,5.00
2023-11-12T18:32:11.924Z,4.40
2023-11-12T18:34:47.278Z,4.90
2023-11-12T18:37:18.345Z,3.90
2023-11-12T18:39:49.150Z,8.30
2023-11-12T18:42:19.985Z,42.30
2023-11-12T18:44:50.760Z,8.20
2023-11-12T18:47:21.486Z,5.00
2023-11-12T18:49:52.229Z,6.10
2023-11-12T18:52:22.989Z,6.80
2023-11-12T18:54:53.721Z,4.80
2023-11-12T18:57:25.393Z,6.10
2023-11-12T18:59:57.264Z,7.40
2023-11-12T19:02:28.071Z,5.90
2023-11-12T19:05:00.995Z,5.40
2023-11-12T19:07:33.057Z,6.10
2023-11-12T19:10:11.056Z,6.70
2023-11-12T19:12:43.944Z,7.40
2023-11-12T19:15:17.969Z,8.10
2023-11-12T19:17:49.576Z,8.50
2023-11-12T19:20:20.887Z,8.70
2023-11-12T19:22:51.695Z,6.70
2023-11-12T19:25:22.550Z,5.50
2023-11-12T19:27:54.189Z,4.50
2023-11-12T19:30:27.199Z,5.60
2023-11-12T19:33:00.114Z,7.50
2023-11-12T19:35:32.105Z,5.90
2023-11-12T19:38:04.572Z,6.80
2023-11-12T19:40:35.580Z,6.00
2023-11-12T19:43:06.867Z,7.30
2023-11-12T19:45:38.119Z,5.60
2023-11-12T19:48:10.710Z,6.00
2023-11-12T19:50:41.698Z,6.10
2023-11-12T19:53:14.419Z,7.30
2023-11-12T19:55:45.248Z,5.10
2023-11-12T19:58:16.139Z,4.40
2023-11-12T20:00:46.970Z,5.80
2023-11-12T20:03:17.977Z,6.30
2023-11-12T20:05:48.977Z,5.60
2023-11-12T20:08:19.844Z,5.30
2023-11-12T20:10:50.591Z,5.80
2023-11-12T20:13:21.374Z,4.70
2023-11-12T20:15:52.909Z,3.80
2023-11-12T20:18:23.961Z,8.90
2023-11-12T20:20:55.376Z,13.00
2023-11-12T20:23:26.130Z,17.60
2023-11-12T20:25:57.126Z,18.40
2023-11-12T20:28:27.862Z,59.00
2023-11-12T20:30:58.725Z,24.10
2023-11-12T20:33:29.523Z,13.90
2023-11-12T20:36:00.316Z,15.50
2023-11-12T20:38:31.212Z,18.20
2023-11-12T20:41:01.893Z,18.80
2023-11-12T20:43:36.458Z,6.10
2023-11-12T20:46:07.992Z,4.60
2023-11-12T20:48:39.030Z,3.90
2023-11-12T20:51:10.460Z,5.00
2023-11-12T20:53:43.513Z,5.30
2023-11-12T20:56:14.534Z,4.20
2023-11-12T20:58:46.484Z,5.00
2023-11-12T21:01:17.287Z,7.70
2023-11-12T21:03:48.192Z,6.50
2023-11-12T21:06:19.037Z,5.90
2023-11-12T21:08:49.709Z,6.70
2023-11-12T21:11:20.436Z,5.90
2023-11-12T21:13:54.630Z,6.20
2023-11-12T21:16:26.616Z,5.90
2023-11-12T21:18:57.664Z,6.30
2023-11-12T21:21:29.995Z,5.50
2023-11-12T21:24:04.506Z,4.90
2023-11-12T21:26:36.731Z,6.50
2023-11-12T21:29:10.302Z,7.60
2023-11-12T21:31:45.195Z,6.00
2023-11-12T21:34:16.225Z,5.30
2023-11-12T21:36:47.535Z,7.00
2023-11-12T21:39:19.728Z,7.20
2023-11-12T21:41:50.493Z,6.30
2023-11-12T21:44:22.753Z,6.00
2023-11-12T21:46:53.712Z,7.50
2023-11-12T21:49:27.764Z,6.20
2023-11-12T21:51:59.549Z,6.80
2023-11-12T21:54:30.565Z,5.30
2023-11-12T21:57:04.328Z,5.80
2023-11-12T21:59:36.865Z,5.40
2023-11-12T22:02:07.850Z,4.70
2023-11-12T22:04:39.575Z,5.70
2023-11-12T22:07:10.364Z,6.90
2023-11-12T22:09:41.162Z,4.80
2023-11-12T22:12:12.465Z,6.70
2023-11-12T22:14:43.315Z,5.90
2023-11-12T22:17:14.116Z,6.90
2023-11-12T22:19:45.036Z,6.20
2023-11-12T22:22:15.837Z,4.80
2023-11-12T22:24:46.604Z,5.40
2023-11-12T22:27:17.303Z,6.00
2023-11-12T22:29:49.150Z,4.70
2023-11-12T22:32:22.229Z,5.60
2023-11-12T22:34:52.966Z,6.30
2023-11-12T22:37:23.650Z,6.10
2023-11-12T22:39:54.996Z,6.70
2023-11-12T22:42:25.912Z,4.50
2023-11-12T22:44:57.307Z,5.60
2023-11-12T22:47:28.314Z,5.90
2023-11-12T22:49:59.077Z,4.90
2023-11-12T22:52:31.535Z,4.80
2023-11-12T22:55:04.158Z,5.80
2023-11-12T22:57:35.928Z,5.30
2023-11-12T23:00:16.793Z,5.20
2023-11-12T23:02:48.527Z,5.40
2023-11-12T23:05:19.310Z,6.50
2023-11-12T23:07:50.054Z,5.80
2023-11-12T23:10:21.017Z,7.20
2023-11-12T23:12:51.847Z,5.70
2023-11-12T23:15:24.145Z,4.80
2023-11-12T23:17:54.872Z,5.30
2023-11-12T23:20:25.679Z,4.20
2023-11-12T23:22:56.431Z,4.60
2023-11-12T23:25:27.267Z,4.20
2023-11-12T23:27:58.017Z,7.40
2023-11-12T23:30:30.012Z,5.30
2023-11-12T23:33:00.869Z,6.10
2023-11-12T23:35:34.443Z,6.00
2023-11-12T23:38:05.675Z,3.90
2023-11-12T23:40:36.380Z,3.70
2023-11-12T23:43:07.193Z,5.80
2023-11-12T23:45:38.091Z,4.90
2023-11-12T23:48:09.236Z,4.30
2023-11-12T23:50:40.026Z,3.10
2023-11-12T23:53:12.791Z,3.50
2023-11-12T23:55:43.670Z,4.70
2023-11-12T23:58:14.411Z,4.30
